sensor_id;sensor_type;location;lat;lon;timestamp;temperature;humidity
9373;DHT22;10838;52.350;9.790;2022-09-09T00:00:48;14.80;95.90
9373;DHT22;10838;52.350;9.790;2022-09-09T00:03:17;14.80;95.90
9373;DHT22;10838;52.350;9.790;2022-09-09T00:05:51;14.80;95.90
9373;DHT22;10838;52.350;9.790;2022-09-09T00:08:25;14.70;95.90
9373;DHT22;10838;52.350;9.790;2022-09-09T00:10:59;14.70;95.90
9373;DHT22;10838;52.350;9.790;2022-09-09T00:13:33;14.70;95.90
9373;DHT22;10838;52.350;9.790;2022-09-09T00:16:04;14.60;95.90
9373;DHT22;10838;52.350;9.790;2022-09-09T00:18:44;14.60;95.80
9373;DHT22;10838;52.350;9.790;2022-09-09T00:21:18;14.60;95.80
9373;DHT22;10838;52.350;9.790;2022-09-09T00:23:48;14.60;95.80
9373;DHT22;10838;52.350;9.790;2022-09-09T00:26:20;14.50;95.80
9373;DHT22;10838;52.350;9.790;2022-09-09T00:28:52;14.50;95.80
9373;DHT22;10838;52.350;9.790;2022-09-09T00:31:26;14.50;95.80
9373;DHT22;10838;52.350;9.790;2022-09-09T00:33:55;14.50;95.80
9373;DHT22;10838;52.350;9.790;2022-09-09T00:36:27;14.40;95.80
9373;DHT22;10838;52.350;9.790;2022-09-09T00:38:57;14.40;95.90
9373;DHT22;10838;52.350;9.790;2022-09-09T00:41:37;14.40;95.80
9373;DHT22;10838;52.350;9.790;2022-09-09T00:44:20;14.40;95.80
9373;DHT22;10838;52.350;9.790;2022-09-09T00:47:05;14.30;95.80
9373;DHT22;10838;52.350;9.790;2022-09-09T00:49:43;14.30;95.80
9373;DHT22;10838;52.350;9.790;2022-09-09T00:52:25;14.30;95.80
9373;DHT22;10838;52.350;9.790;2022-09-09T00:54:57;14.30;95.80
9373;DHT22;10838;52.350;9.790;2022-09-09T00:57:28;14.30;95.80
9373;DHT22;10838;52.350;9.790;2022-09-09T01:00:00;14.30;95.80
9373;DHT22;10838;52.350;9.790;2022-09-09T01:02:37;14.20;95.80
9373;DHT22;10838;52.350;9.790;2022-09-09T01:05:12;14.20;95.80
9373;DHT22;10838;52.350;9.790;2022-09-09T01:07:44;14.20;95.80
9373;DHT22;10838;52.350;9.790;2022-09-09T01:10:22;14.20;95.80
9373;DHT22;10838;52.350;9.790;2022-09-09T01:12:54;14.10;95.80
9373;DHT22;10838;52.350;9.790;2022-09-09T01:15:25;14.10;95.80
9373;DHT22;10838;52.350;9.790;2022-09-09T01:17:58;14.10;95.90
9373;DHT22;10838;52.350;9.790;2022-09-09T01:20:31;14.10;95.90
9373;DHT22;10838;52.350;9.790;2022-09-09T01:23:14;14.10;95.90
9373;DHT22;10838;52.350;9.790;2022-09-09T01:26:15;14.10;96.00
9373;DHT22;10838;52.350;9.790;2022-09-09T01:28:45;14.10;96.00
9373;DHT22;10838;52.350;9.790;2022-09-09T01:31:17;14.10;96.10
9373;DHT22;10838;52.350;9.790;2022-09-09T01:33:44;14.10;96.10
9373;DHT22;10838;52.350;9.790;2022-09-09T01:36:13;14.10;96.20
9373;DHT22;10838;52.350;9.790;2022-09-09T01:38:41;14.10;96.20
9373;DHT22;10838;52.350;9.790;2022-09-09T01:41:09;14.10;96.20
9373;DHT22;10838;52.350;9.790;2022-09-09T01:43:36;14.10;96.30
9373;DHT22;10838;52.350;9.790;2022-09-09T01:46:04;14.10;96.30
9373;DHT22;10838;52.350;9.790;2022-09-09T01:48:31;14.20;96.30
9373;DHT22;10838;52.350;9.790;2022-09-09T01:50:57;14.20;96.40
9373;DHT22;10838;52.350;9.790;2022-09-09T01:53:24;14.20;96.40
9373;DHT22;10838;52.350;9.790;2022-09-09T01:55:59;14.20;96.40
9373;DHT22;10838;52.350;9.790;2022-09-09T01:58:39;14.20;96.40
9373;DHT22;10838;52.350;9.790;2022-09-09T02:01:15;14.20;96.40
9373;DHT22;10838;52.350;9.790;2022-09-09T02:03:49;14.20;96.40
9373;DHT22;10838;52.350;9.790;2022-09-09T02:06:26;14.20;96.40
9373;DHT22;10838;52.350;9.790;2022-09-09T02:08:56;14.20;96.40
9373;DHT22;10838;52.350;9.790;2022-09-09T02:11:26;14.20;96.40
9373;DHT22;10838;52.350;9.790;2022-09-09T02:13:57;14.20;96.40
9373;DHT22;10838;52.350;9.790;2022-09-09T02:16:30;14.20;96.50
9373;DHT22;10838;52.350;9.790;2022-09-09T02:19:04;14.20;96.50
9373;DHT22;10838;52.350;9.790;2022-09-09T02:21:33;14.20;96.50
9373;DHT22;10838;52.350;9.790;2022-09-09T02:24:05;14.20;96.50
9373;DHT22;10838;52.350;9.790;2022-09-09T02:26:36;14.20;96.60
9373;DHT22;10838;52.350;9.790;2022-09-09T02:29:10;14.30;96.60
9373;DHT22;10838;52.350;9.790;2022-09-09T02:31:39;14.20;96.60
9373;DHT22;10838;52.350;9.790;2022-09-09T02:34:09;14.30;96.60
9373;DHT22;10838;52.350;9.790;2022-09-09T02:36:38;14.30;96.70
9373;DHT22;10838;52.350;9.790;2022-09-09T02:39:08;14.30;96.70
9373;DHT22;10838;52.350;9.790;2022-09-09T02:41:37;14.40;96.70
9373;DHT22;10838;52.350;9.790;2022-09-09T02:44:08;14.40;96.70
9373;DHT22;10838;52.350;9.790;2022-09-09T02:46:49;14.40;96.70
9373;DHT22;10838;52.350;9.790;2022-09-09T02:49:25;14.40;96.80
9373;DHT22;10838;52.350;9.790;2022-09-09T02:52:01;14.40;96.80
9373;DHT22;10838;52.350;9.790;2022-09-09T02:54:30;14.50;96.80
9373;DHT22;10838;52.350;9.790;2022-09-09T02:57:01;14.40;96.80
9373;DHT22;10838;52.350;9.790;2022-09-09T02:59:31;14.50;96.80
9373;DHT22;10838;52.350;9.790;2022-09-09T03:01:59;14.50;96.80
9373;DHT22;10838;52.350;9.790;2022-09-09T03:04:26;14.50;96.90
9373;DHT22;10838;52.350;9.790;2022-09-09T03:06:53;14.50;96.90
9373;DHT22;10838;52.350;9.790;2022-09-09T03:09:19;14.60;96.90
9373;DHT22;10838;52.350;9.790;2022-09-09T03:11:46;14.60;96.90
9373;DHT22;10838;52.350;9.790;2022-09-09T03:14:14;14.60;96.90
9373;DHT22;10838;52.350;9.790;2022-09-09T03:16:43;14.70;96.90
9373;DHT22;10838;52.350;9.790;2022-09-09T03:19:10;14.70;96.90
9373;DHT22;10838;52.350;9.790;2022-09-09T03:21:36;14.70;96.90
9373;DHT22;10838;52.350;9.790;2022-09-09T03:24:04;14.70;97.00
9373;DHT22;10838;52.350;9.790;2022-09-09T03:26:32;14.80;97.00
9373;DHT22;10838;52.350;9.790;2022-09-09T03:28:59;14.80;97.00
9373;DHT22;10838;52.350;9.790;2022-09-09T03:31:26;14.80;97.00
9373;DHT22;10838;52.350;9.790;2022-09-09T03:33:56;14.80;97.00
9373;DHT22;10838;52.350;9.790;2022-09-09T03:36:23;14.90;97.00
9373;DHT22;10838;52.350;9.790;2022-09-09T03:38:51;14.90;97.00
9373;DHT22;10838;52.350;9.790;2022-09-09T03:41:19;14.90;97.00
9373;DHT22;10838;52.350;9.790;2022-09-09T03:43:46;14.90;97.00
9373;DHT22;10838;52.350;9.790;2022-09-09T03:46:12;14.90;97.00
9373;DHT22;10838;52.350;9.790;2022-09-09T03:48:39;14.90;97.00
9373;DHT22;10838;52.350;9.790;2022-09-09T03:51:07;14.90;97.10
9373;DHT22;10838;52.350;9.790;2022-09-09T03:53:33;14.90;97.00
9373;DHT22;10838;52.350;9.790;2022-09-09T03:56:01;15.00;97.00
9373;DHT22;10838;52.350;9.790;2022-09-09T03:58:28;15.00;97.00
9373;DHT22;10838;52.350;9.790;2022-09-09T04:00:56;15.00;97.00
9373;DHT22;10838;52.350;9.790;2022-09-09T04:03:23;15.00;97.00
9373;DHT22;10838;52.350;9.790;2022-09-09T04:05:50;15.00;97.00
9373;DHT22;10838;52.350;9.790;2022-09-09T04:08:19;15.00;97.00
9373;DHT22;10838;52.350;9.790;2022-09-09T04:10:45;15.00;97.00
9373;DHT22;10838;52.350;9.790;2022-09-09T04:13:13;15.00;97.00
9373;DHT22;10838;52.350;9.790;2022-09-09T04:15:40;15.00;97.00
9373;DHT22;10838;52.350;9.790;2022-09-09T04:18:07;15.00;97.00
9373;DHT22;10838;52.350;9.790;2022-09-09T04:20:34;15.00;97.10
9373;DHT22;10838;52.350;9.790;2022-09-09T04:23:01;15.10;97.00
9373;DHT22;10838;52.350;9.790;2022-09-09T04:25:29;15.10;97.10
9373;DHT22;10838;52.350;9.790;2022-09-09T04:27:56;15.10;97.10
9373;DHT22;10838;52.350;9.790;2022-09-09T04:30:23;15.10;97.10
9373;DHT22;10838;52.350;9.790;2022-09-09T04:32:50;15.10;97.10
9373;DHT22;10838;52.350;9.790;2022-09-09T04:35:17;15.10;97.10
9373;DHT22;10838;52.350;9.790;2022-09-09T04:37:44;15.10;97.10
9373;DHT22;10838;52.350;9.790;2022-09-09T04:40:10;15.10;97.10
9373;DHT22;10838;52.350;9.790;2022-09-09T04:42:39;15.20;97.10
9373;DHT22;10838;52.350;9.790;2022-09-09T04:45:09;15.20;97.10
9373;DHT22;10838;52.350;9.790;2022-09-09T04:47:36;15.20;97.10
9373;DHT22;10838;52.350;9.790;2022-09-09T04:50:03;15.20;97.10
9373;DHT22;10838;52.350;9.790;2022-09-09T04:52:30;15.20;97.10
9373;DHT22;10838;52.350;9.790;2022-09-09T04:54:57;15.20;97.10
9373;DHT22;10838;52.350;9.790;2022-09-09T04:57:24;15.30;97.10
9373;DHT22;10838;52.350;9.790;2022-09-09T04:59:52;15.20;97.10
9373;DHT22;10838;52.350;9.790;2022-09-09T05:02:18;15.30;97.10
9373;DHT22;10838;52.350;9.790;2022-09-09T05:04:45;15.30;97.10
9373;DHT22;10838;52.350;9.790;2022-09-09T05:07:11;15.30;97.10
9373;DHT22;10838;52.350;9.790;2022-09-09T05:09:40;15.30;97.10
9373;DHT22;10838;52.350;9.790;2022-09-09T05:12:06;15.30;97.10
9373;DHT22;10838;52.350;9.790;2022-09-09T05:14:33;15.40;97.10
9373;DHT22;10838;52.350;9.790;2022-09-09T05:17:03;15.40;97.10
9373;DHT22;10838;52.350;9.790;2022-09-09T05:19:30;15.40;97.10
9373;DHT22;10838;52.350;9.790;2022-09-09T05:21:56;15.40;97.10
9373;DHT22;10838;52.350;9.790;2022-09-09T05:24:23;15.40;97.10
9373;DHT22;10838;52.350;9.790;2022-09-09T05:26:50;15.40;97.10
9373;DHT22;10838;52.350;9.790;2022-09-09T05:29:17;15.50;97.10
9373;DHT22;10838;52.350;9.790;2022-09-09T05:31:44;15.50;97.10
9373;DHT22;10838;52.350;9.790;2022-09-09T05:34:13;15.50;97.10
9373;DHT22;10838;52.350;9.790;2022-09-09T05:36:40;15.50;97.10
9373;DHT22;10838;52.350;9.790;2022-09-09T05:39:07;15.50;97.10
9373;DHT22;10838;52.350;9.790;2022-09-09T05:41:33;15.50;97.10
9373;DHT22;10838;52.350;9.790;2022-09-09T05:44:01;15.60;97.10
9373;DHT22;10838;52.350;9.790;2022-09-09T05:46:28;15.60;97.20
9373;DHT22;10838;52.350;9.790;2022-09-09T05:48:55;15.60;97.20
9373;DHT22;10838;52.350;9.790;2022-09-09T05:51:26;15.60;97.20
9373;DHT22;10838;52.350;9.790;2022-09-09T05:53:55;15.60;97.20
9373;DHT22;10838;52.350;9.790;2022-09-09T05:56:25;15.60;97.20
9373;DHT22;10838;52.350;9.790;2022-09-09T05:58:53;15.60;97.20
9373;DHT22;10838;52.350;9.790;2022-09-09T06:01:21;15.70;97.20
9373;DHT22;10838;52.350;9.790;2022-09-09T06:03:50;15.70;97.20
9373;DHT22;10838;52.350;9.790;2022-09-09T06:06:17;15.70;97.20
9373;DHT22;10838;52.350;9.790;2022-09-09T06:08:47;15.70;97.20
9373;DHT22;10838;52.350;9.790;2022-09-09T06:11:15;15.80;97.20
9373;DHT22;10838;52.350;9.790;2022-09-09T06:13:43;15.80;97.20
9373;DHT22;10838;52.350;9.790;2022-09-09T06:16:14;15.80;97.20
9373;DHT22;10838;52.350;9.790;2022-09-09T06:18:41;15.80;97.20
9373;DHT22;10838;52.350;9.790;2022-09-09T06:21:13;15.90;97.20
9373;DHT22;10838;52.350;9.790;2022-09-09T06:23:41;15.90;97.20
9373;DHT22;10838;52.350;9.790;2022-09-09T06:26:11;15.90;97.20
9373;DHT22;10838;52.350;9.790;2022-09-09T06:28:38;15.90;97.20
9373;DHT22;10838;52.350;9.790;2022-09-09T06:31:06;16.00;97.20
9373;DHT22;10838;52.350;9.790;2022-09-09T06:33:35;16.00;97.20
9373;DHT22;10838;52.350;9.790;2022-09-09T06:36:05;16.00;97.20
9373;DHT22;10838;52.350;9.790;2022-09-09T06:38:32;16.10;97.20
9373;DHT22;10838;52.350;9.790;2022-09-09T06:40:59;16.10;97.20
9373;DHT22;10838;52.350;9.790;2022-09-09T06:43:28;16.10;97.20
9373;DHT22;10838;52.350;9.790;2022-09-09T06:45:56;16.10;97.20
9373;DHT22;10838;52.350;9.790;2022-09-09T06:48:22;16.20;97.20
9373;DHT22;10838;52.350;9.790;2022-09-09T06:50:51;16.20;97.20
9373;DHT22;10838;52.350;9.790;2022-09-09T06:53:17;16.20;97.20
9373;DHT22;10838;52.350;9.790;2022-09-09T06:55:45;16.30;97.30
9373;DHT22;10838;52.350;9.790;2022-09-09T06:58:12;16.40;97.30
9373;DHT22;10838;52.350;9.790;2022-09-09T07:00:40;16.50;97.30
9373;DHT22;10838;52.350;9.790;2022-09-09T07:03:07;16.60;97.30
9373;DHT22;10838;52.350;9.790;2022-09-09T07:05:34;16.70;97.30
9373;DHT22;10838;52.350;9.790;2022-09-09T07:08:00;16.90;97.40
9373;DHT22;10838;52.350;9.790;2022-09-09T07:10:27;17.10;97.40
9373;DHT22;10838;52.350;9.790;2022-09-09T07:12:54;17.20;97.40
9373;DHT22;10838;52.350;9.790;2022-09-09T07:15:20;17.40;97.40
9373;DHT22;10838;52.350;9.790;2022-09-09T07:17:49;17.60;97.40
9373;DHT22;10838;52.350;9.790;2022-09-09T07:20:16;17.90;97.30
9373;DHT22;10838;52.350;9.790;2022-09-09T07:22:42;18.10;97.20
9373;DHT22;10838;52.350;9.790;2022-09-09T07:25:09;18.20;97.10
9373;DHT22;10838;52.350;9.790;2022-09-09T07:27:35;18.40;97.10
9373;DHT22;10838;52.350;9.790;2022-09-09T07:30:03;18.50;97.00
9373;DHT22;10838;52.350;9.790;2022-09-09T07:32:29;18.70;96.90
9373;DHT22;10838;52.350;9.790;2022-09-09T07:34:58;18.90;96.80
9373;DHT22;10838;52.350;9.790;2022-09-09T07:37:25;19.00;96.70
9373;DHT22;10838;52.350;9.790;2022-09-09T07:39:51;19.10;96.70
9373;DHT22;10838;52.350;9.790;2022-09-09T07:42:18;19.30;96.60
9373;DHT22;10838;52.350;9.790;2022-09-09T07:44:45;19.40;96.50
9373;DHT22;10838;52.350;9.790;2022-09-09T07:47:11;19.60;96.40
9373;DHT22;10838;52.350;9.790;2022-09-09T07:49:38;19.70;96.30
9373;DHT22;10838;52.350;9.790;2022-09-09T07:52:06;19.80;96.20
9373;DHT22;10838;52.350;9.790;2022-09-09T07:54:32;19.90;96.20
9373;DHT22;10838;52.350;9.790;2022-09-09T07:56:59;20.10;96.10
9373;DHT22;10838;52.350;9.790;2022-09-09T07:59:25;20.30;96.00
9373;DHT22;10838;52.350;9.790;2022-09-09T08:01:53;20.40;95.90
9373;DHT22;10838;52.350;9.790;2022-09-09T08:04:21;20.60;95.80
9373;DHT22;10838;52.350;9.790;2022-09-09T08:06:49;20.70;95.80
9373;DHT22;10838;52.350;9.790;2022-09-09T08:09:20;20.80;95.70
9373;DHT22;10838;52.350;9.790;2022-09-09T08:11:47;20.90;95.60
9373;DHT22;10838;52.350;9.790;2022-09-09T08:14:14;20.90;95.50
9373;DHT22;10838;52.350;9.790;2022-09-09T08:16:42;20.90;95.50
9373;DHT22;10838;52.350;9.790;2022-09-09T08:19:09;20.90;95.40
9373;DHT22;10838;52.350;9.790;2022-09-09T08:21:38;20.80;95.30
9373;DHT22;10838;52.350;9.790;2022-09-09T08:24:06;20.70;95.30
9373;DHT22;10838;52.350;9.790;2022-09-09T08:26:35;20.70;95.30
9373;DHT22;10838;52.350;9.790;2022-09-09T08:29:04;20.70;95.40
9373;DHT22;10838;52.350;9.790;2022-09-09T08:31:34;20.60;95.30
9373;DHT22;10838;52.350;9.790;2022-09-09T08:34:01;20.60;95.30
9373;DHT22;10838;52.350;9.790;2022-09-09T08:36:30;20.60;95.30
9373;DHT22;10838;52.350;9.790;2022-09-09T08:38:58;20.50;95.30
9373;DHT22;10838;52.350;9.790;2022-09-09T08:41:43;20.50;95.30
9373;DHT22;10838;52.350;9.790;2022-09-09T08:44:20;20.50;95.30
9373;DHT22;10838;52.350;9.790;2022-09-09T08:46:52;20.50;95.30
9373;DHT22;10838;52.350;9.790;2022-09-09T08:49:43;20.50;95.20
9373;DHT22;10838;52.350;9.790;2022-09-09T08:52:18;20.50;95.20
9373;DHT22;10838;52.350;9.790;2022-09-09T08:54:46;20.50;95.20
9373;DHT22;10838;52.350;9.790;2022-09-09T08:57:19;20.50;95.20
9373;DHT22;10838;52.350;9.790;2022-09-09T08:59:48;20.50;95.10
9373;DHT22;10838;52.350;9.790;2022-09-09T09:02:21;20.50;95.10
9373;DHT22;10838;52.350;9.790;2022-09-09T09:05:01;20.60;95.10
9373;DHT22;10838;52.350;9.790;2022-09-09T09:07:42;20.60;95.10
9373;DHT22;10838;52.350;9.790;2022-09-09T09:10:21;20.70;95.00
9373;DHT22;10838;52.350;9.790;2022-09-09T09:12:53;20.80;95.00
9373;DHT22;10838;52.350;9.790;2022-09-09T09:15:23;20.80;94.90
9373;DHT22;10838;52.350;9.790;2022-09-09T09:17:51;20.90;94.90
9373;DHT22;10838;52.350;9.790;2022-09-09T09:20:21;20.90;94.90
9373;DHT22;10838;52.350;9.790;2022-09-09T09:22:50;21.00;94.90
9373;DHT22;10838;52.350;9.790;2022-09-09T09:25:19;21.10;94.90
9373;DHT22;10838;52.350;9.790;2022-09-09T09:27:51;21.20;94.90
9373;DHT22;10838;52.350;9.790;2022-09-09T09:30:22;21.20;94.80
9373;DHT22;10838;52.350;9.790;2022-09-09T09:32:53;21.30;94.70
9373;DHT22;10838;52.350;9.790;2022-09-09T09:35:20;21.40;94.70
9373;DHT22;10838;52.350;9.790;2022-09-09T09:37:48;21.40;94.70
9373;DHT22;10838;52.350;9.790;2022-09-09T09:40:17;21.50;94.70
9373;DHT22;10838;52.350;9.790;2022-09-09T09:42:52;21.50;94.70
9373;DHT22;10838;52.350;9.790;2022-09-09T09:45:28;21.60;94.60
9373;DHT22;10838;52.350;9.790;2022-09-09T09:48:01;21.70;94.60
9373;DHT22;10838;52.350;9.790;2022-09-09T09:50:29;21.70;94.60
9373;DHT22;10838;52.350;9.790;2022-09-09T09:52:58;21.80;94.50
9373;DHT22;10838;52.350;9.790;2022-09-09T09:55:25;21.80;94.60
9373;DHT22;10838;52.350;9.790;2022-09-09T09:57:52;21.80;94.40
9373;DHT22;10838;52.350;9.790;2022-09-09T10:00:22;21.80;94.40
9373;DHT22;10838;52.350;9.790;2022-09-09T10:02:49;21.90;94.40
9373;DHT22;10838;52.350;9.790;2022-09-09T10:05:19;21.90;94.30
9373;DHT22;10838;52.350;9.790;2022-09-09T10:07:47;21.90;94.30
9373;DHT22;10838;52.350;9.790;2022-09-09T10:10:17;22.00;94.20
9373;DHT22;10838;52.350;9.790;2022-09-09T10:12:54;22.00;94.10
9373;DHT22;10838;52.350;9.790;2022-09-09T10:15:35;22.00;94.10
9373;DHT22;10838;52.350;9.790;2022-09-09T10:18:16;22.00;94.10
9373;DHT22;10838;52.350;9.790;2022-09-09T10:20:52;22.00;94.00
9373;DHT22;10838;52.350;9.790;2022-09-09T10:23:31;22.00;94.00
9373;DHT22;10838;52.350;9.790;2022-09-09T10:26:10;22.00;94.00
9373;DHT22;10838;52.350;9.790;2022-09-09T10:28:59;22.00;94.00
9373;DHT22;10838;52.350;9.790;2022-09-09T10:31:35;22.00;94.00
9373;DHT22;10838;52.350;9.790;2022-09-09T10:34:14;22.00;94.00
9373;DHT22;10838;52.350;9.790;2022-09-09T10:36:46;22.00;93.90
9373;DHT22;10838;52.350;9.790;2022-09-09T10:39:22;22.00;93.90
9373;DHT22;10838;52.350;9.790;2022-09-09T10:42:03;22.00;94.00
9373;DHT22;10838;52.350;9.790;2022-09-09T10:44:40;21.90;93.90
9373;DHT22;10838;52.350;9.790;2022-09-09T10:47:32;21.90;93.90
9373;DHT22;10838;52.350;9.790;2022-09-09T10:50:16;21.80;93.80
9373;DHT22;10838;52.350;9.790;2022-09-09T10:52:52;21.80;93.90
9373;DHT22;10838;52.350;9.790;2022-09-09T10:55:25;21.80;93.90
9373;DHT22;10838;52.350;9.790;2022-09-09T10:57:56;21.70;93.90
9373;DHT22;10838;52.350;9.790;2022-09-09T11:00:29;21.70;93.90
9373;DHT22;10838;52.350;9.790;2022-09-09T11:03:01;21.70;93.90
9373;DHT22;10838;52.350;9.790;2022-09-09T11:05:31;21.70;94.00
9373;DHT22;10838;52.350;9.790;2022-09-09T11:08:04;21.70;94.20
9373;DHT22;10838;52.350;9.790;2022-09-09T11:10:39;21.80;94.30
9373;DHT22;10838;52.350;9.790;2022-09-09T11:13:11;21.80;94.30
9373;DHT22;10838;52.350;9.790;2022-09-09T11:15:45;21.80;94.30
9373;DHT22;10838;52.350;9.790;2022-09-09T11:18:19;21.80;94.20
9373;DHT22;10838;52.350;9.790;2022-09-09T11:20:48;21.80;94.20
9373;DHT22;10838;52.350;9.790;2022-09-09T11:23:19;21.70;94.10
9373;DHT22;10838;52.350;9.790;2022-09-09T11:25:51;21.70;94.00
9373;DHT22;10838;52.350;9.790;2022-09-09T11:28:37;21.70;93.90
9373;DHT22;10838;52.350;9.790;2022-09-09T11:31:33;21.70;93.90
9373;DHT22;10838;52.350;9.790;2022-09-09T11:34:17;21.60;93.80
9373;DHT22;10838;52.350;9.790;2022-09-09T11:37:00;21.40;93.90
9373;DHT22;10838;52.350;9.790;2022-09-09T11:39:57;21.30;94.00
9373;DHT22;10838;52.350;9.790;2022-09-09T11:42:26;21.10;94.00
9373;DHT22;10838;52.350;9.790;2022-09-09T11:44:53;20.70;94.00
9373;DHT22;10838;52.350;9.790;2022-09-09T11:47:23;20.60;94.00
9373;DHT22;10838;52.350;9.790;2022-09-09T11:50:06;20.40;94.00
9373;DHT22;10838;52.350;9.790;2022-09-09T11:52:37;20.20;94.00
9373;DHT22;10838;52.350;9.790;2022-09-09T11:55:09;20.00;94.10
9373;DHT22;10838;52.350;9.790;2022-09-09T11:57:38;19.90;94.20
9373;DHT22;10838;52.350;9.790;2022-09-09T12:00:06;19.80;94.20
9373;DHT22;10838;52.350;9.790;2022-09-09T12:02:33;19.70;94.30
9373;DHT22;10838;52.350;9.790;2022-09-09T12:05:06;19.70;94.30
9373;DHT22;10838;52.350;9.790;2022-09-09T12:07:35;19.60;94.40
9373;DHT22;10838;52.350;9.790;2022-09-09T12:10:19;19.50;94.40
9373;DHT22;10838;52.350;9.790;2022-09-09T12:12:47;19.50;94.50
9373;DHT22;10838;52.350;9.790;2022-09-09T12:15:23;19.50;94.60
9373;DHT22;10838;52.350;9.790;2022-09-09T12:17:54;19.40;94.60
9373;DHT22;10838;52.350;9.790;2022-09-09T12:20:26;19.40;94.70
9373;DHT22;10838;52.350;9.790;2022-09-09T12:23:16;19.30;94.70
9373;DHT22;10838;52.350;9.790;2022-09-09T12:26:02;19.30;94.80
9373;DHT22;10838;52.350;9.790;2022-09-09T12:28:44;19.30;94.80
9373;DHT22;10838;52.350;9.790;2022-09-09T12:31:15;19.30;94.90
9373;DHT22;10838;52.350;9.790;2022-09-09T12:33:45;19.30;94.90
9373;DHT22;10838;52.350;9.790;2022-09-09T12:36:17;19.30;94.90
9373;DHT22;10838;52.350;9.790;2022-09-09T12:38:46;19.40;95.00
9373;DHT22;10838;52.350;9.790;2022-09-09T12:41:20;19.40;95.10
9373;DHT22;10838;52.350;9.790;2022-09-09T12:43:48;19.50;95.10
9373;DHT22;10838;52.350;9.790;2022-09-09T12:46:22;19.50;95.10
9373;DHT22;10838;52.350;9.790;2022-09-09T12:48:52;19.60;95.10
9373;DHT22;10838;52.350;9.790;2022-09-09T12:51:25;19.70;95.10
9373;DHT22;10838;52.350;9.790;2022-09-09T12:53:53;19.70;95.10
9373;DHT22;10838;52.350;9.790;2022-09-09T12:56:22;19.80;95.20
9373;DHT22;10838;52.350;9.790;2022-09-09T12:58:50;19.80;95.30
9373;DHT22;10838;52.350;9.790;2022-09-09T13:01:21;19.90;95.30
9373;DHT22;10838;52.350;9.790;2022-09-09T13:03:48;19.90;95.30
9373;DHT22;10838;52.350;9.790;2022-09-09T13:06:21;20.00;95.30
9373;DHT22;10838;52.350;9.790;2022-09-09T13:08:49;20.10;95.40
9373;DHT22;10838;52.350;9.790;2022-09-09T13:11:18;20.10;95.40
9373;DHT22;10838;52.350;9.790;2022-09-09T13:13:51;20.10;95.50
9373;DHT22;10838;52.350;9.790;2022-09-09T13:16:20;20.20;95.50
9373;DHT22;10838;52.350;9.790;2022-09-09T13:18:49;20.20;95.60
9373;DHT22;10838;52.350;9.790;2022-09-09T13:21:16;20.30;95.60
9373;DHT22;10838;52.350;9.790;2022-09-09T13:23:49;20.30;95.70
9373;DHT22;10838;52.350;9.790;2022-09-09T13:26:23;20.30;95.70
9373;DHT22;10838;52.350;9.790;2022-09-09T13:28:51;20.30;95.70
9373;DHT22;10838;52.350;9.790;2022-09-09T13:31:23;20.40;95.80
9373;DHT22;10838;52.350;9.790;2022-09-09T13:33:50;20.40;95.80
9373;DHT22;10838;52.350;9.790;2022-09-09T13:36:27;20.40;95.80
9373;DHT22;10838;52.350;9.790;2022-09-09T13:38:58;20.40;95.70
9373;DHT22;10838;52.350;9.790;2022-09-09T13:41:29;20.40;95.70
9373;DHT22;10838;52.350;9.790;2022-09-09T13:43:56;20.30;95.70
9373;DHT22;10838;52.350;9.790;2022-09-09T13:46:31;20.30;95.60
9373;DHT22;10838;52.350;9.790;2022-09-09T13:48:59;20.30;95.30
9373;DHT22;10838;52.350;9.790;2022-09-09T13:51:33;20.40;95.30
9373;DHT22;10838;52.350;9.790;2022-09-09T13:54:01;20.40;95.30
9373;DHT22;10838;52.350;9.790;2022-09-09T13:56:28;20.40;95.30
9373;DHT22;10838;52.350;9.790;2022-09-09T13:58:54;20.40;95.30
9373;DHT22;10838;52.350;9.790;2022-09-09T14:01:23;20.40;95.30
9373;DHT22;10838;52.350;9.790;2022-09-09T14:03:49;20.40;95.30
9373;DHT22;10838;52.350;9.790;2022-09-09T14:06:16;20.40;95.40
9373;DHT22;10838;52.350;9.790;2022-09-09T14:08:44;20.40;95.30
9373;DHT22;10838;52.350;9.790;2022-09-09T14:11:13;20.40;95.20
9373;DHT22;10838;52.350;9.790;2022-09-09T14:13:39;20.50;95.20
9373;DHT22;10838;52.350;9.790;2022-09-09T14:16:06;20.50;95.20
9373;DHT22;10838;52.350;9.790;2022-09-09T14:18:33;20.50;95.10
9373;DHT22;10838;52.350;9.790;2022-09-09T14:20:59;20.60;95.20
9373;DHT22;10838;52.350;9.790;2022-09-09T14:23:28;20.60;95.10
9373;DHT22;10838;52.350;9.790;2022-09-09T14:25:55;20.60;95.10
9373;DHT22;10838;52.350;9.790;2022-09-09T14:28:23;20.60;95.00
9373;DHT22;10838;52.350;9.790;2022-09-09T14:30:50;20.60;95.00
9373;DHT22;10838;52.350;9.790;2022-09-09T14:33:17;20.70;95.00
9373;DHT22;10838;52.350;9.790;2022-09-09T14:35:44;20.70;94.90
9373;DHT22;10838;52.350;9.790;2022-09-09T14:38:10;20.70;95.00
9373;DHT22;10838;52.350;9.790;2022-09-09T14:40:38;20.70;94.80
9373;DHT22;10838;52.350;9.790;2022-09-09T14:43:05;20.70;94.90
9373;DHT22;10838;52.350;9.790;2022-09-09T14:45:35;20.80;94.90
9373;DHT22;10838;52.350;9.790;2022-09-09T14:48:03;20.80;95.00
9373;DHT22;10838;52.350;9.790;2022-09-09T14:50:30;20.80;95.20
9373;DHT22;10838;52.350;9.790;2022-09-09T14:52:56;20.80;95.30
9373;DHT22;10838;52.350;9.790;2022-09-09T14:55:23;20.90;95.30
9373;DHT22;10838;52.350;9.790;2022-09-09T14:57:50;20.90;95.30
9373;DHT22;10838;52.350;9.790;2022-09-09T15:00:16;20.90;95.20
9373;DHT22;10838;52.350;9.790;2022-09-09T15:02:44;21.00;95.20
9373;DHT22;10838;52.350;9.790;2022-09-09T15:05:11;21.00;95.20
9373;DHT22;10838;52.350;9.790;2022-09-09T15:07:37;21.00;95.20
9373;DHT22;10838;52.350;9.790;2022-09-09T15:10:05;21.00;95.20
9373;DHT22;10838;52.350;9.790;2022-09-09T15:12:31;21.00;95.10
9373;DHT22;10838;52.350;9.790;2022-09-09T15:14:58;21.00;95.10
9373;DHT22;10838;52.350;9.790;2022-09-09T15:17:25;21.00;95.20
9373;DHT22;10838;52.350;9.790;2022-09-09T15:19:53;21.10;95.20
9373;DHT22;10838;52.350;9.790;2022-09-09T15:22:21;21.10;95.20
9373;DHT22;10838;52.350;9.790;2022-09-09T15:24:47;21.10;95.30
9373;DHT22;10838;52.350;9.790;2022-09-09T15:27:14;21.10;95.40
9373;DHT22;10838;52.350;9.790;2022-09-09T15:29:40;21.10;95.30
9373;DHT22;10838;52.350;9.790;2022-09-09T15:32:07;21.10;95.30
9373;DHT22;10838;52.350;9.790;2022-09-09T15:34:34;21.10;95.30
9373;DHT22;10838;52.350;9.790;2022-09-09T15:37:02;21.10;95.30
9373;DHT22;10838;52.350;9.790;2022-09-09T15:39:28;21.00;95.40
9373;DHT22;10838;52.350;9.790;2022-09-09T15:41:55;21.00;95.50
9373;DHT22;10838;52.350;9.790;2022-09-09T15:44:21;21.00;95.50
9373;DHT22;10838;52.350;9.790;2022-09-09T15:46:51;21.00;95.60
9373;DHT22;10838;52.350;9.790;2022-09-09T15:49:21;21.00;95.60
9373;DHT22;10838;52.350;9.790;2022-09-09T15:51:52;21.00;95.50
9373;DHT22;10838;52.350;9.790;2022-09-09T15:54:21;21.00;95.50
9373;DHT22;10838;52.350;9.790;2022-09-09T15:56:52;21.00;95.60
9373;DHT22;10838;52.350;9.790;2022-09-09T15:59:20;21.00;95.60
9373;DHT22;10838;52.350;9.790;2022-09-09T16:01:47;20.90;95.70
9373;DHT22;10838;52.350;9.790;2022-09-09T16:04:16;20.90;95.70